createdAt,value
2022-08-26T00:00:52.998Z,100356.03
2022-08-26T00:03:22.450Z,100353.73
2022-08-26T00:05:51.400Z,100353.98
2022-08-26T00:08:21.615Z,100356.80
2022-08-26T00:10:49.702Z,100354.02
2022-08-26T00:13:18.779Z,100354.86
2022-08-26T00:15:48.590Z,100353.39
2022-08-26T00:18:22.379Z,100357.80
2022-08-26T00:20:51.811Z,100358.38
2022-08-26T00:23:20.598Z,100358.25
2022-08-26T00:25:53.576Z,100354.80
2022-08-26T00:28:22.466Z,100354.38
2022-08-26T00:30:52.081Z,100351.83
2022-08-26T00:33:20.978Z,100354.86
2022-08-26T00:35:50.003Z,100351.25
2022-08-26T00:38:21.410Z,100349.07
2022-08-26T00:40:55.547Z,100351.46
2022-08-26T00:43:26.248Z,100354.58
2022-08-26T00:45:57.241Z,100356.17
2022-08-26T00:48:27.719Z,100353.13
2022-08-26T00:51:14.851Z,100356.83
2022-08-26T00:53:53.789Z,100359.26
2022-08-26T00:56:29.100Z,100358.64
2022-08-26T00:59:01.943Z,100356.63
2022-08-26T01:01:33.062Z,100357.38
2022-08-26T01:04:02.070Z,100357.19
2022-08-26T01:06:32.057Z,100356.52
2022-08-26T01:09:00.412Z,100358.52
2022-08-26T01:11:28.800Z,100357.81
2022-08-26T01:13:59.287Z,100358.73
2022-08-26T01:16:27.669Z,100357.02
2022-08-26T01:19:04.052Z,100354.57
2022-08-26T01:21:44.421Z,100355.70
2022-08-26T01:24:13.956Z,100354.80
2022-08-26T01:26:45.111Z,100353.70
2022-08-26T01:29:21.570Z,100355.05
2022-08-26T01:31:57.910Z,100356.23
2022-08-26T01:34:30.610Z,100355.98
2022-08-26T01:37:19.950Z,100356.98
2022-08-26T01:39:52.513Z,100354.07
2022-08-26T01:42:23.964Z,100356.12
2022-08-26T01:45:15.089Z,100351.41
2022-08-26T01:47:43.775Z,100351.20
2022-08-26T01:50:30.990Z,100348.08
2022-08-26T01:53:06.192Z,100349.03
2022-08-26T01:55:35.897Z,100350.91
2022-08-26T01:58:10.268Z,100346.56
2022-08-26T02:00:40.613Z,100347.09
2022-08-26T02:03:19.511Z,100348.77
2022-08-26T02:06:02.425Z,100348.29
2022-08-26T02:08:47.001Z,100347.43
2022-08-26T02:11:18.279Z,100348.71
2022-08-26T02:13:51.522Z,100347.90
2022-08-26T02:16:22.951Z,100350.23
2022-08-26T02:18:53.813Z,100351.66
2022-08-26T02:21:22.200Z,100350.23
2022-08-26T02:23:56.010Z,100345.27
2022-08-26T02:26:27.043Z,100346.13
2022-08-26T02:28:55.513Z,100345.09
2022-08-26T02:31:24.561Z,100348.06
2022-08-26T02:33:53.219Z,100344.34
2022-08-26T02:36:24.151Z,100345.72
2022-08-26T02:38:57.626Z,100342.17
2022-08-26T02:41:25.805Z,100341.67
2022-08-26T02:43:53.770Z,100339.60
2022-08-26T02:46:29.865Z,100340.22
2022-08-26T02:48:58.917Z,100340.38
2022-08-26T02:51:28.130Z,100343.55
2022-08-26T02:53:57.237Z,100336.45
2022-08-26T02:56:25.282Z,100338.36
2022-08-26T02:58:53.461Z,100338.08
2022-08-26T03:01:25.320Z,100344.29
2022-08-26T03:03:54.845Z,100345.02
2022-08-26T03:06:22.793Z,100344.47
2022-08-26T03:08:52.255Z,100341.48
2022-08-26T03:11:20.617Z,100338.79
2022-08-26T03:13:51.768Z,100337.91
2022-08-26T03:16:20.914Z,100339.42
2022-08-26T03:18:52.293Z,100335.72
2022-08-26T03:21:21.361Z,100336.87
2022-08-26T03:23:50.038Z,100336.42
2022-08-26T03:26:18.110Z,100338.74
2022-08-26T03:29:04.818Z,100335.59
2022-08-26T03:31:33.191Z,100337.35
2022-08-26T03:34:01.370Z,100340.94
2022-08-26T03:36:29.542Z,100343.98
2022-08-26T03:38:58.845Z,100342.15
2022-08-26T03:41:26.824Z,100343.39
2022-08-26T03:43:57.391Z,100342.27
2022-08-26T03:46:33.200Z,100338.77
2022-08-26T03:49:03.438Z,100338.70
2022-08-26T03:51:32.113Z,100334.95
2022-08-26T03:54:03.354Z,100334.20
2022-08-26T03:56:33.809Z,100334.92
2022-08-26T03:59:05.059Z,100339.11
2022-08-26T04:01:36.600Z,100337.29
2022-08-26T04:04:05.404Z,100334.92
2022-08-26T04:06:38.352Z,100331.55
2022-08-26T04:09:11.715Z,100327.06
2022-08-26T04:11:42.673Z,100328.21
2022-08-26T04:14:17.692Z,100326.77
2022-08-26T04:16:49.510Z,100326.23
2022-08-26T04:19:18.874Z,100326.46
2022-08-26T04:21:51.374Z,100328.15
2022-08-26T04:24:22.468Z,100324.62
2022-08-26T04:26:50.864Z,100327.39
2022-08-26T04:29:24.290Z,100327.80
2022-08-26T04:31:55.865Z,100332.33
2022-08-26T04:34:28.591Z,100333.81
2022-08-26T04:36:58.111Z,100334.36
2022-08-26T04:39:27.986Z,100338.48
2022-08-26T04:41:57.681Z,100336.64
2022-08-26T04:44:29.214Z,100339.14
2022-08-26T04:46:58.898Z,100339.48
2022-08-26T04:49:27.886Z,100338.44
2022-08-26T04:52:05.504Z,100340.65
2022-08-26T04:54:33.756Z,100344.71
2022-08-26T04:57:02.784Z,100347.00
2022-08-26T04:59:30.754Z,100348.80
2022-08-26T05:02:00.017Z,100347.60
2022-08-26T05:04:28.326Z,100340.83
2022-08-26T05:07:02.332Z,100343.63
2022-08-26T05:09:31.090Z,100342.10
2022-08-26T05:11:59.268Z,100342.89
2022-08-26T05:14:28.135Z,100341.98
2022-08-26T05:16:56.427Z,100343.33
2022-08-26T05:19:25.715Z,100341.17
2022-08-26T05:21:56.891Z,100349.50
2022-08-26T05:24:25.254Z,100354.68
2022-08-26T05:26:53.427Z,100360.22
2022-08-26T05:29:21.334Z,100362.98
2022-08-26T05:31:52.409Z,100360.00
2022-08-26T05:34:21.414Z,100361.61
2022-08-26T05:36:49.398Z,100363.45
2022-08-26T05:39:17.962Z,100370.33
2022-08-26T05:41:46.340Z,100381.47
2022-08-26T05:44:16.155Z,100381.89
2022-08-26T05:46:46.181Z,100384.39
2022-08-26T05:49:16.533Z,100384.21
2022-08-26T05:51:47.578Z,100387.54
2022-08-26T05:54:21.737Z,100391.91
2022-08-26T05:56:53.605Z,100393.38
2022-08-26T05:59:24.469Z,100392.70
2022-08-26T06:01:55.195Z,100392.34
2022-08-26T06:04:27.268Z,100391.98
2022-08-26T06:06:58.901Z,100394.31
2022-08-26T06:09:27.890Z,100394.52
2022-08-26T06:11:56.722Z,100392.53
2022-08-26T06:14:26.351Z,100389.95
2022-08-26T06:16:55.380Z,100391.99
2022-08-26T06:19:23.627Z,100395.38
2022-08-26T06:21:55.087Z,100394.29
2022-08-26T06:24:42.129Z,100397.75
2022-08-26T06:27:14.005Z,100402.73
2022-08-26T06:29:43.348Z,100399.06
2022-08-26T06:32:11.799Z,100392.95
2022-08-26T06:34:39.743Z,100390.48
2022-08-26T06:37:09.154Z,100391.42
2022-08-26T06:39:41.087Z,100391.03
2022-08-26T06:42:11.937Z,100388.89
2022-08-26T06:44:40.926Z,100387.51
2022-08-26T06:47:09.267Z,100389.92
2022-08-26T06:49:37.612Z,100388.77
2022-08-26T06:52:05.607Z,100394.61
2022-08-26T06:54:33.955Z,100393.45
2022-08-26T06:57:02.206Z,100397.83
2022-08-26T06:59:31.551Z,100398.02
2022-08-26T07:01:59.662Z,100400.05
2022-08-26T07:04:28.209Z,100396.17
2022-08-26T07:06:56.844Z,100400.96
2022-08-26T07:09:32.845Z,100399.02
2022-08-26T07:12:02.518Z,100396.58
2022-08-26T07:14:31.984Z,100401.37
2022-08-26T07:17:01.186Z,100398.27
2022-08-26T07:19:31.471Z,100396.46
2022-08-26T07:22:04.339Z,100397.64
2022-08-26T07:24:36.174Z,100396.71
2022-08-26T07:27:07.078Z,100393.98
2022-08-26T07:29:39.243Z,100398.05
2022-08-26T07:32:09.947Z,100390.96
2022-08-26T07:34:39.210Z,100390.02
2022-08-26T07:37:09.814Z,100395.21
2022-08-26T07:39:38.211Z,100386.94
2022-08-26T07:42:13.455Z,100387.05
2022-08-26T07:44:43.233Z,100395.60
2022-08-26T07:47:25.522Z,100397.94
2022-08-26T07:49:57.742Z,100395.52
2022-08-26T07:52:28.999Z,100392.56
2022-08-26T07:54:59.346Z,100390.95
2022-08-26T07:57:29.051Z,100389.02
2022-08-26T07:59:57.816Z,100386.98
2022-08-26T08:02:28.665Z,100388.96
2022-08-26T08:04:58.252Z,100387.02
2022-08-26T08:07:44.240Z,100390.11
2022-08-26T08:10:18.699Z,100389.53
2022-08-26T08:12:50.414Z,100394.66
2022-08-26T08:15:21.457Z,100392.80
2022-08-26T08:17:50.724Z,100395.48
2022-08-26T08:20:21.180Z,100391.06
2022-08-26T08:22:52.259Z,100393.79
2022-08-26T08:25:23.000Z,100393.25
2022-08-26T08:27:50.960Z,100398.29
2022-08-26T08:30:22.995Z,100390.23
2022-08-26T08:32:52.634Z,100391.62
2022-08-26T08:35:23.287Z,100388.63
2022-08-26T08:37:54.435Z,100387.40
2022-08-26T08:40:26.069Z,100386.61
2022-08-26T08:43:06.668Z,100385.66
2022-08-26T08:46:00.924Z,100383.02
2022-08-26T08:48:37.286Z,100381.11
2022-08-26T08:51:43.680Z,100378.80
2022-08-26T08:54:12.719Z,100376.85
2022-08-26T08:56:49.446Z,100376.20
2022-08-26T08:59:17.373Z,100377.11
2022-08-26T09:02:12.833Z,100378.55
2022-08-26T09:05:08.208Z,100376.67
2022-08-26T09:07:40.138Z,100372.03
2022-08-26T09:10:25.608Z,100373.20
2022-08-26T09:12:53.669Z,100378.53
2022-08-26T09:15:40.709Z,100377.05
2022-08-26T09:18:15.835Z,100374.04
2022-08-26T09:20:55.841Z,100368.10
2022-08-26T09:23:25.343Z,100368.81
2022-08-26T09:26:00.444Z,100363.69
2022-08-26T09:28:30.930Z,100365.06
2022-08-26T09:31:21.792Z,100365.95
2022-08-26T09:34:17.365Z,100367.52
2022-08-26T09:36:50.316Z,100366.01
2022-08-26T09:39:24.064Z,100364.02
2022-08-26T09:42:14.161Z,100359.70
2022-08-26T09:45:00.691Z,100357.02
2022-08-26T09:47:33.311Z,100357.61
2022-08-26T09:50:28.823Z,100355.32
2022-08-26T09:53:09.879Z,100354.28
2022-08-26T09:55:46.995Z,100354.10
2022-08-26T09:58:37.815Z,100354.84
2022-08-26T10:01:09.250Z,100358.97
2022-08-26T10:03:39.764Z,100356.39
2022-08-26T10:06:23.249Z,100358.69
2022-08-26T10:08:55.785Z,100358.02
2022-08-26T10:11:42.865Z,100354.73
2022-08-26T10:14:16.060Z,100351.57
2022-08-26T10:17:02.636Z,100353.97
2022-08-26T10:19:57.829Z,100355.16
2022-08-26T10:22:54.348Z,100352.02
2022-08-26T10:25:28.546Z,100346.44
2022-08-26T10:28:18.281Z,100345.85
2022-08-26T10:30:56.837Z,100340.57
2022-08-26T10:33:25.344Z,100336.53
2022-08-26T10:35:57.282Z,100338.68
2022-08-26T10:38:32.361Z,100337.38
2022-08-26T10:41:10.653Z,100337.81
2022-08-26T10:43:52.256Z,100335.00
2022-08-26T10:46:27.097Z,100343.54
2022-08-26T10:49:06.845Z,100336.02
2022-08-26T10:51:42.357Z,100331.05
2022-08-26T10:54:39.705Z,100335.17
2022-08-26T10:57:35.248Z,100334.67
2022-08-26T11:00:32.691Z,100329.61
2022-08-26T11:03:22.388Z,100331.27
2022-08-26T11:06:21.569Z,100332.39
2022-08-26T11:08:53.506Z,100327.98
2022-08-26T11:11:39.630Z,100321.20
2022-08-26T11:14:29.105Z,100316.56
2022-08-26T11:16:59.933Z,100313.29
2022-08-26T11:19:45.637Z,100308.95
2022-08-26T11:22:47.688Z,100311.89
2022-08-26T11:25:20.847Z,100309.50
2022-08-26T11:27:48.709Z,100306.09
2022-08-26T11:30:18.395Z,100303.94
2022-08-26T11:32:52.011Z,100297.09
2022-08-26T11:35:20.043Z,100299.26
2022-08-26T11:37:51.173Z,100289.56
2022-08-26T11:40:38.601Z,100285.75
2022-08-26T11:43:13.385Z,100285.31
2022-08-26T11:45:45.050Z,100278.75
2022-08-26T11:48:19.042Z,100280.73
2022-08-26T11:51:01.910Z,100283.83
2022-08-26T11:53:34.385Z,100279.69
2022-08-26T11:56:06.874Z,100269.48
2022-08-26T11:58:35.908Z,100269.00
2022-08-26T12:01:22.221Z,100271.58
2022-08-26T12:03:52.672Z,100264.42
2022-08-26T12:09:02.645Z,100263.16
2022-08-26T12:11:36.450Z,100260.58
2022-08-26T12:14:17.635Z,100255.51
2022-08-26T12:16:45.839Z,100255.33
2022-08-26T12:19:27.456Z,100249.17
2022-08-26T12:22:08.152Z,100253.21
2022-08-26T12:24:36.378Z,100244.84
2022-08-26T12:27:18.054Z,100247.65
2022-08-26T12:30:14.443Z,100236.40
2022-08-26T12:33:03.412Z,100239.11
2022-08-26T12:35:54.375Z,100240.05
2022-08-26T12:38:27.719Z,100240.45
2022-08-26T12:40:57.209Z,100240.15
2022-08-26T12:43:40.198Z,100236.16
2022-08-26T12:46:12.860Z,100230.86
2022-08-26T12:48:45.052Z,100228.08
2022-08-26T12:51:24.887Z,100227.06
2022-08-26T12:53:54.375Z,100226.08
2022-08-26T12:56:39.123Z,100224.73
2022-08-26T12:59:26.222Z,100223.47
2022-08-26T13:01:54.719Z,100215.52
2022-08-26T13:04:42.432Z,100210.86
2022-08-26T13:07:25.712Z,100204.21
2022-08-26T13:09:56.810Z,100203.08
2022-08-26T13:12:50.904Z,100206.33
2022-08-26T13:15:18.898Z,100203.04
2022-08-26T13:17:46.855Z,100198.85
2022-08-26T13:20:14.807Z,100191.92
2022-08-26T13:22:43.849Z,100193.33
2022-08-26T13:25:11.989Z,100187.23
2022-08-26T13:27:40.687Z,100182.17
2022-08-26T13:30:10.817Z,100177.05
2022-08-26T13:32:41.365Z,100171.17
2022-08-26T13:35:11.290Z,100170.52
2022-08-26T13:37:39.303Z,100164.94
2022-08-26T13:40:10.329Z,100161.63
2022-08-26T13:42:49.418Z,100154.89
2022-08-26T13:45:18.497Z,100149.66
2022-08-26T13:47:46.637Z,100145.73
2022-08-26T13:50:14.826Z,100146.86
2022-08-26T13:52:42.876Z,100146.75
2022-08-26T13:55:11.277Z,100153.66
2022-08-26T13:57:39.276Z,100151.76
2022-08-26T14:00:11.055Z,100152.95
2022-08-26T14:02:39.349Z,100153.11
2022-08-26T14:05:08.379Z,100151.52
2022-08-26T14:07:37.033Z,100157.19
2022-08-26T14:10:05.366Z,100148.27
2022-08-26T14:12:33.444Z,100141.55
2022-08-26T14:15:01.447Z,100138.90
2022-08-26T14:17:30.786Z,100138.30
2022-08-26T14:19:59.036Z,100137.05
2022-08-26T14:22:27.037Z,100137.94
2022-08-26T14:24:55.117Z,100131.91
2022-08-26T14:27:23.177Z,100134.96
2022-08-26T14:29:52.345Z,100137.62
2022-08-26T14:32:29.159Z,100136.73
2022-08-26T14:34:57.238Z,100132.11
2022-08-26T14:37:25.903Z,100135.58
2022-08-26T14:39:55.165Z,100135.52
2022-08-26T14:42:31.550Z,100136.33
2022-08-26T14:45:03.302Z,100132.00
2022-08-26T14:47:31.975Z,100136.23
2022-08-26T14:50:00.817Z,100133.91
2022-08-26T14:52:30.168Z,100130.35
2022-08-26T14:54:58.286Z,100124.11
2022-08-26T14:57:26.287Z,100129.59
2022-08-26T14:59:54.316Z,100129.25
2022-08-26T15:05:16.813Z,100130.91
2022-08-26T15:07:44.861Z,100135.57
2022-08-26T15:10:15.180Z,100138.00
2022-08-26T15:12:43.226Z,100137.29
2022-08-26T15:15:13.593Z,100140.16
2022-08-26T15:17:41.689Z,100131.98
2022-08-26T15:20:11.352Z,100130.10
2022-08-26T15:22:42.639Z,100127.05
2022-08-26T15:25:12.527Z,100113.70
2022-08-26T15:27:40.847Z,100116.13
2022-08-26T15:30:12.550Z,100117.48
2022-08-26T15:32:40.756Z,100107.45
2022-08-26T15:35:09.530Z,100105.06
2022-08-26T15:37:39.140Z,100103.61
2022-08-26T15:40:09.740Z,100090.47
2022-08-26T15:42:37.947Z,100094.45
2022-08-26T15:45:06.345Z,100093.55
2022-08-26T15:47:44.427Z,100101.98
2022-08-26T15:50:25.444Z,100097.60
2022-08-26T15:52:53.412Z,100100.95
2022-08-26T15:55:24.183Z,100098.70
2022-08-26T15:57:52.149Z,100098.67
2022-08-26T16:00:20.893Z,100095.77
2022-08-26T16:02:48.943Z,100089.88
2022-08-26T16:05:18.065Z,100086.52
2022-08-26T16:07:46.233Z,100086.11
2022-08-26T16:10:14.477Z,100086.34
2022-08-26T16:12:42.462Z,100084.23
2022-08-26T16:15:11.144Z,100083.27
2022-08-26T16:17:40.825Z,100078.52
2022-08-26T16:20:09.703Z,100081.14
2022-08-26T16:22:37.671Z,100079.14
2022-08-26T16:25:07.598Z,100078.00
2022-08-26T16:27:35.653Z,100079.96
2022-08-26T16:30:07.092Z,100079.29
2022-08-26T16:32:35.045Z,100075.98
2022-08-26T16:35:02.898Z,100073.65
2022-08-26T16:37:30.925Z,100073.14
2022-08-26T16:39:58.919Z,100071.59
2022-08-26T16:42:26.981Z,100066.91
2022-08-26T16:44:55.346Z,100061.91
2022-08-26T16:47:23.427Z,100058.24
2022-08-26T16:49:51.701Z,100056.92
2022-08-26T16:52:20.072Z,100053.05
2022-08-26T16:54:49.444Z,100052.42
2022-08-26T16:57:17.657Z,100057.41
2022-08-26T16:59:46.300Z,100054.45
2022-08-26T17:02:14.370Z,100053.89
2022-08-26T17:04:46.156Z,100052.83
2022-08-26T17:07:15.518Z,100052.67
2022-08-26T17:09:43.763Z,100053.10
2022-08-26T17:12:12.232Z,100052.32
2022-08-26T17:14:40.405Z,100053.54
2022-08-26T17:17:08.436Z,100050.80
2022-08-26T17:19:40.769Z,100049.90
2022-08-26T17:22:10.012Z,100049.77
2022-08-26T17:24:39.035Z,100049.52
2022-08-26T17:27:07.050Z,100049.85
2022-08-26T17:29:35.235Z,100049.77
2022-08-26T17:32:03.536Z,100052.73
2022-08-26T17:34:31.580Z,100050.84
2022-08-26T17:36:59.715Z,100050.93
2022-08-26T17:39:27.795Z,100047.41
2022-08-26T17:41:55.846Z,100046.99
2022-08-26T17:44:24.588Z,100048.20
2022-08-26T17:46:53.208Z,100047.52
2022-08-26T17:49:21.115Z,100050.85
2022-08-26T17:51:49.360Z,100048.66
2022-08-26T17:54:17.515Z,100050.48
2022-08-26T17:56:49.385Z,100049.28
2022-08-26T17:59:30.479Z,100048.06
2022-08-26T18:02:00.299Z,100051.70
2022-08-26T18:04:31.946Z,100046.51
2022-08-26T18:06:59.975Z,100046.08
2022-08-26T18:09:31.628Z,100046.88
2022-08-26T18:12:00.431Z,100046.45
2022-08-26T18:14:28.325Z,100047.77
2022-08-26T18:16:56.391Z,100050.37
2022-08-26T18:19:24.355Z,100041.76
2022-08-26T18:21:53.150Z,100051.02
2022-08-26T18:24:21.005Z,100049.16
2022-08-26T18:26:49.868Z,100051.58
2022-08-26T18:29:20.038Z,100053.30
2022-08-26T18:31:48.875Z,100050.55
2022-08-26T18:34:17.139Z,100048.14
2022-08-26T18:36:46.218Z,100045.58
2022-08-26T18:39:15.540Z,100049.84
2022-08-26T18:41:49.594Z,100045.04
2022-08-26T18:44:20.378Z,100050.35
2022-08-26T18:46:48.345Z,100051.81
2022-08-26T18:49:18.556Z,100049.35
2022-08-26T18:51:47.835Z,100053.53
2022-08-26T18:54:15.874Z,100054.35
2022-08-26T18:56:44.635Z,100059.05
2022-08-26T18:59:15.056Z,100056.20
2022-08-26T19:01:43.621Z,100056.17
2022-08-26T19:04:15.614Z,100054.21
2022-08-26T19:06:47.710Z,100054.60
2022-08-26T19:09:17.909Z,100058.61
2022-08-26T19:11:48.847Z,100057.45
2022-08-26T19:14:18.936Z,100057.64
2022-08-26T19:16:49.754Z,100055.89
2022-08-26T19:19:18.455Z,100058.59
2022-08-26T19:21:48.619Z,100056.80
2022-08-26T19:24:19.125Z,100053.39
2022-08-26T19:26:51.394Z,100056.89
2022-08-26T19:29:28.573Z,100053.73
2022-08-26T19:31:56.902Z,100055.34
2022-08-26T19:34:24.972Z,100053.90
2022-08-26T19:36:54.331Z,100052.17
2022-08-26T19:39:22.487Z,100052.08
2022-08-26T19:41:50.464Z,100047.23
2022-08-26T19:44:40.461Z,100047.91
2022-08-26T19:47:11.139Z,100054.19
2022-08-26T19:49:39.433Z,100051.31
2022-08-26T19:52:07.691Z,100052.73
2022-08-26T19:54:36.394Z,100052.89
2022-08-26T19:57:05.525Z,100055.77
2022-08-26T19:59:34.053Z,100054.21
2022-08-26T20:02:07.138Z,100060.02
2022-08-26T20:04:39.170Z,100059.27
2022-08-26T20:07:07.789Z,100058.25
2022-08-26T20:09:36.324Z,100057.81
2022-08-26T20:12:06.193Z,100063.43
2022-08-26T20:14:35.396Z,100059.64
2022-08-26T20:17:06.322Z,100056.27
2022-08-26T20:19:53.375Z,100059.36
2022-08-26T20:22:22.373Z,100057.80
2022-08-26T20:24:50.664Z,100059.57
2022-08-26T20:27:18.912Z,100060.11
2022-08-26T20:29:47.069Z,100055.64
2022-08-26T20:32:15.385Z,100058.77
2022-08-26T20:34:43.640Z,100059.70
2022-08-26T20:37:12.623Z,100064.67
2022-08-26T20:39:41.745Z,100064.14
2022-08-26T20:42:20.490Z,100070.96
2022-08-26T20:44:54.160Z,100067.23
2022-08-26T20:47:23.469Z,100069.52
2022-08-26T20:49:52.345Z,100070.37
2022-08-26T20:52:23.902Z,100069.26
2022-08-26T20:54:52.066Z,100069.88
2022-08-26T20:57:22.604Z,100069.45
2022-08-26T20:59:50.775Z,100069.09
2022-08-26T21:02:19.045Z,100070.61
2022-08-26T21:04:50.000Z,100070.96
2022-08-26T21:07:21.105Z,100068.42
2022-08-26T21:09:52.586Z,100072.29
2022-08-26T21:12:20.578Z,100068.84
2022-08-26T21:14:49.750Z,100075.08
2022-08-26T21:17:18.736Z,100075.58
2022-08-26T21:19:46.799Z,100074.14
2022-08-26T21:22:14.905Z,100076.89
2022-08-26T21:24:43.032Z,100077.63
2022-08-26T21:27:11.235Z,100074.27
2022-08-26T21:29:39.313Z,100072.26
2022-08-26T21:32:07.389Z,100072.19
2022-08-26T21:34:35.652Z,100074.98
2022-08-26T21:37:06.006Z,100072.39
2022-08-26T21:39:43.406Z,100073.34
2022-08-26T21:42:11.505Z,100071.85
2022-08-26T21:44:39.435Z,100069.25
2022-08-26T21:47:07.421Z,100066.84
2022-08-26T21:49:35.777Z,100068.44
2022-08-26T21:52:04.916Z,100066.05
2022-08-26T21:54:33.032Z,100068.20
2022-08-26T21:57:02.217Z,100067.77
2022-08-26T21:59:30.332Z,100066.31
2022-08-26T22:01:58.950Z,100064.74
2022-08-26T22:04:28.625Z,100065.20
2022-08-26T22:07:00.240Z,100060.38
2022-08-26T22:09:33.620Z,100061.52
2022-08-26T22:12:01.890Z,100060.60
2022-08-26T22:14:31.037Z,100061.40
2022-08-26T22:17:00.425Z,100059.82
2022-08-26T22:19:30.109Z,100062.65
2022-08-26T22:21:58.572Z,100062.36
2022-08-26T22:24:27.579Z,100056.66
2022-08-26T22:26:56.226Z,100065.42
2022-08-26T22:29:25.458Z,100064.54
2022-08-26T22:31:53.879Z,100064.60
2022-08-26T22:34:23.437Z,100061.73
2022-08-26T22:36:51.592Z,100063.52
2022-08-26T22:39:23.957Z,100059.85
2022-08-26T22:41:53.502Z,100060.42
2022-08-26T22:44:22.470Z,100057.55
2022-08-26T22:46:54.463Z,100061.41
2022-08-26T22:49:24.016Z,100058.04
2022-08-26T22:51:52.001Z,100061.30
2022-08-26T22:54:20.305Z,100063.67
2022-08-26T22:56:48.912Z,100060.34
2022-08-26T22:59:16.984Z,100060.73
2022-08-26T23:01:47.659Z,100060.16
2022-08-26T23:04:15.770Z,100056.64
2022-08-26T23:06:47.617Z,100057.02
2022-08-26T23:09:18.672Z,100050.33
2022-08-26T23:11:48.744Z,100050.73
2022-08-26T23:14:18.834Z,100043.88
2022-08-26T23:16:47.880Z,100046.14
2022-08-26T23:19:22.069Z,100046.64
2022-08-26T23:21:50.820Z,100047.37
2022-08-26T23:24:19.337Z,100047.27
2022-08-26T23:26:47.298Z,100043.94
2022-08-26T23:29:16.160Z,100042.76
2022-08-26T23:31:44.784Z,100045.02
2022-08-26T23:34:32.510Z,100047.64
2022-08-26T23:37:01.124Z,100048.72
2022-08-26T23:39:31.394Z,100049.36
2022-08-26T23:42:01.945Z,100048.55
2022-08-26T23:44:31.129Z,100046.42
2022-08-26T23:46:59.789Z,100039.21
2022-08-26T23:49:28.052Z,100034.30
2022-08-26T23:52:14.765Z,100035.39
2022-08-26T23:54:43.066Z,100029.57
2022-08-26T23:57:11.713Z,100028.27
2022-08-26T23:59:39.989Z,100025.33
